Terminal Aerodrome Forecast
Issued by NWS Twin Cities, MN

Home | Current Version | Previous Version | Text Only | Print | Product List | Glossary On
Versions: 1 2 3 4 5 6 7 8 9 10 11 12 13 14 15 16 17 18 19 20 21 22 23 24 25 26 27 28 29
733
FTUS43 KMPX 180858 AAA
TAFMSP
TAF AMD
KMSP 180858Z 1809/1912 17005KT 4SM BR BKN005
     FM181000 18005KT 4SM BR SCT005 OVC100
     FM181400 20008KT P6SM SCT200
     FM182100 21011KT P6SM BKN090
     FM190700 27008KT P6SM BKN100=

USA.gov is the U.S. government's official web portal to all federal, state and local government web resources and services.